sensor_id;sensor_type;location;lat;lon;timestamp;temperature;humidity
22379;DHT22;11357;49.990;7.370;2023-04-25T00:00:13;11.00;89.70
22379;DHT22;11357;49.990;7.370;2023-04-25T00:02:39;11.00;89.60
22379;DHT22;11357;49.990;7.370;2023-04-25T00:05:05;11.00;89.60
22379;DHT22;11357;49.990;7.370;2023-04-25T00:07:31;11.00;89.60
22379;DHT22;11357;49.990;7.370;2023-04-25T00:09:58;11.00;89.50
22379;DHT22;11357;49.990;7.370;2023-04-25T00:12:23;11.00;89.60
22379;DHT22;11357;49.990;7.370;2023-04-25T00:14:49;11.00;89.60
22379;DHT22;11357;49.990;7.370;2023-04-25T00:17:16;11.00;89.70
22379;DHT22;11357;49.990;7.370;2023-04-25T00:19:45;11.00;89.70
22379;DHT22;11357;49.990;7.370;2023-04-25T00:22:12;11.00;89.60
22379;DHT22;11357;49.990;7.370;2023-04-25T00:24:38;11.00;89.70
22379;DHT22;11357;49.990;7.370;2023-04-25T00:27:04;10.90;89.70
22379;DHT22;11357;49.990;7.370;2023-04-25T00:29:29;10.90;89.70
22379;DHT22;11357;49.990;7.370;2023-04-25T00:31:55;10.90;89.60
22379;DHT22;11357;49.990;7.370;2023-04-25T00:34:21;10.90;89.70
22379;DHT22;11357;49.990;7.370;2023-04-25T00:36:46;10.90;89.70
22379;DHT22;11357;49.990;7.370;2023-04-25T00:39:12;10.80;89.70
22379;DHT22;11357;49.990;7.370;2023-04-25T00:41:38;10.80;89.60
22379;DHT22;11357;49.990;7.370;2023-04-25T00:44:05;10.80;89.60
22379;DHT22;11357;49.990;7.370;2023-04-25T00:46:32;10.80;89.50
22379;DHT22;11357;49.990;7.370;2023-04-25T00:48:58;10.80;89.50
22379;DHT22;11357;49.990;7.370;2023-04-25T00:51:25;10.80;89.50
22379;DHT22;11357;49.990;7.370;2023-04-25T00:53:52;10.80;89.50
22379;DHT22;11357;49.990;7.370;2023-04-25T00:56:18;10.80;89.50
22379;DHT22;11357;49.990;7.370;2023-04-25T00:58:44;10.80;89.50
22379;DHT22;11357;49.990;7.370;2023-04-25T01:01:10;10.70;89.60
22379;DHT22;11357;49.990;7.370;2023-04-25T01:03:38;10.70;89.80
22379;DHT22;11357;49.990;7.370;2023-04-25T01:06:12;10.70;89.90
22379;DHT22;11357;49.990;7.370;2023-04-25T01:08:39;10.70;89.90
22379;DHT22;11357;49.990;7.370;2023-04-25T01:11:05;10.70;89.90
22379;DHT22;11357;49.990;7.370;2023-04-25T01:13:31;10.70;90.00
22379;DHT22;11357;49.990;7.370;2023-04-25T01:15:59;10.70;90.00
22379;DHT22;11357;49.990;7.370;2023-04-25T01:18:24;10.70;90.00
22379;DHT22;11357;49.990;7.370;2023-04-25T01:20:54;10.70;90.00
22379;DHT22;11357;49.990;7.370;2023-04-25T01:23:22;10.70;89.90
22379;DHT22;11357;49.990;7.370;2023-04-25T01:25:50;10.70;89.90
22379;DHT22;11357;49.990;7.370;2023-04-25T01:28:17;10.70;90.00
22379;DHT22;11357;49.990;7.370;2023-04-25T01:30:43;10.60;90.00
22379;DHT22;11357;49.990;7.370;2023-04-25T01:33:09;10.70;90.00
22379;DHT22;11357;49.990;7.370;2023-04-25T01:35:35;10.60;90.00
22379;DHT22;11357;49.990;7.370;2023-04-25T01:38:01;10.60;90.00
22379;DHT22;11357;49.990;7.370;2023-04-25T01:40:27;10.60;90.10
22379;DHT22;11357;49.990;7.370;2023-04-25T01:42:53;10.60;90.10
22379;DHT22;11357;49.990;7.370;2023-04-25T01:45:20;10.60;90.10
22379;DHT22;11357;49.990;7.370;2023-04-25T01:47:46;10.60;90.10
22379;DHT22;11357;49.990;7.370;2023-04-25T01:50:17;10.60;90.10
22379;DHT22;11357;49.990;7.370;2023-04-25T01:52:44;10.70;90.10
22379;DHT22;11357;49.990;7.370;2023-04-25T01:55:09;10.70;90.10
22379;DHT22;11357;49.990;7.370;2023-04-25T01:57:35;10.70;90.10
22379;DHT22;11357;49.990;7.370;2023-04-25T02:00:03;10.70;90.00
22379;DHT22;11357;49.990;7.370;2023-04-25T02:02:30;10.70;90.00
22379;DHT22;11357;49.990;7.370;2023-04-25T02:04:55;10.70;90.00
22379;DHT22;11357;49.990;7.370;2023-04-25T02:07:22;10.70;90.00
22379;DHT22;11357;49.990;7.370;2023-04-25T02:09:47;10.70;90.00
22379;DHT22;11357;49.990;7.370;2023-04-25T02:12:13;10.60;90.00
22379;DHT22;11357;49.990;7.370;2023-04-25T02:14:39;10.60;90.10
22379;DHT22;11357;49.990;7.370;2023-04-25T02:17:05;10.60;90.10
22379;DHT22;11357;49.990;7.370;2023-04-25T02:19:31;10.60;90.10
22379;DHT22;11357;49.990;7.370;2023-04-25T02:21:57;10.60;90.10
22379;DHT22;11357;49.990;7.370;2023-04-25T02:24:23;10.60;90.10
22379;DHT22;11357;49.990;7.370;2023-04-25T02:26:49;10.50;90.20
22379;DHT22;11357;49.990;7.370;2023-04-25T02:29:15;10.50;90.30
22379;DHT22;11357;49.990;7.370;2023-04-25T02:31:41;10.50;90.30
22379;DHT22;11357;49.990;7.370;2023-04-25T02:34:07;10.50;90.30
22379;DHT22;11357;49.990;7.370;2023-04-25T02:36:33;10.50;90.30
22379;DHT22;11357;49.990;7.370;2023-04-25T02:39:01;10.50;90.30
22379;DHT22;11357;49.990;7.370;2023-04-25T02:41:28;10.50;90.30
22379;DHT22;11357;49.990;7.370;2023-04-25T02:43:54;10.50;90.30
22379;DHT22;11357;49.990;7.370;2023-04-25T02:46:20;10.40;90.30
22379;DHT22;11357;49.990;7.370;2023-04-25T02:48:45;10.40;90.30
22379;DHT22;11357;49.990;7.370;2023-04-25T02:51:11;10.30;90.40
22379;DHT22;11357;49.990;7.370;2023-04-25T02:53:37;10.30;90.40
22379;DHT22;11357;49.990;7.370;2023-04-25T02:56:03;10.30;90.40
22379;DHT22;11357;49.990;7.370;2023-04-25T02:58:29;10.30;90.40
22379;DHT22;11357;49.990;7.370;2023-04-25T03:00:55;10.20;90.30
22379;DHT22;11357;49.990;7.370;2023-04-25T03:03:20;10.10;90.30
22379;DHT22;11357;49.990;7.370;2023-04-25T03:05:50;10.20;90.30
22379;DHT22;11357;49.990;7.370;2023-04-25T03:08:16;10.10;90.30
22379;DHT22;11357;49.990;7.370;2023-04-25T03:10:43;10.10;90.30
22379;DHT22;11357;49.990;7.370;2023-04-25T03:13:08;10.20;90.30
22379;DHT22;11357;49.990;7.370;2023-04-25T03:15:35;10.20;90.30
22379;DHT22;11357;49.990;7.370;2023-04-25T03:18:01;10.20;90.20
22379;DHT22;11357;49.990;7.370;2023-04-25T03:20:27;10.10;90.10
22379;DHT22;11357;49.990;7.370;2023-04-25T03:22:53;10.10;90.10
22379;DHT22;11357;49.990;7.370;2023-04-25T03:25:19;10.00;90.00
22379;DHT22;11357;49.990;7.370;2023-04-25T03:27:45;10.00;90.00
22379;DHT22;11357;49.990;7.370;2023-04-25T03:30:11;10.00;90.00
22379;DHT22;11357;49.990;7.370;2023-04-25T03:32:37;9.90;90.00
22379;DHT22;11357;49.990;7.370;2023-04-25T03:35:02;9.90;90.00
22379;DHT22;11357;49.990;7.370;2023-04-25T03:37:28;9.90;90.10
22379;DHT22;11357;49.990;7.370;2023-04-25T03:39:54;9.80;90.20
22379;DHT22;11357;49.990;7.370;2023-04-25T03:42:20;9.80;90.20
22379;DHT22;11357;49.990;7.370;2023-04-25T03:44:48;9.80;90.20
22379;DHT22;11357;49.990;7.370;2023-04-25T03:47:14;9.80;90.30
22379;DHT22;11357;49.990;7.370;2023-04-25T03:49:41;9.80;90.30
22379;DHT22;11357;49.990;7.370;2023-04-25T03:52:07;9.80;90.30
22379;DHT22;11357;49.990;7.370;2023-04-25T03:54:33;9.80;90.30
22379;DHT22;11357;49.990;7.370;2023-04-25T03:56:59;9.80;90.30
22379;DHT22;11357;49.990;7.370;2023-04-25T03:59:25;9.70;90.40
22379;DHT22;11357;49.990;7.370;2023-04-25T04:01:52;9.70;90.50
22379;DHT22;11357;49.990;7.370;2023-04-25T04:04:17;9.70;90.60
22379;DHT22;11357;49.990;7.370;2023-04-25T04:06:43;9.70;90.60
22379;DHT22;11357;49.990;7.370;2023-04-25T04:09:09;9.70;90.70
22379;DHT22;11357;49.990;7.370;2023-04-25T04:11:37;9.70;90.70
22379;DHT22;11357;49.990;7.370;2023-04-25T04:14:05;9.70;90.80
22379;DHT22;11357;49.990;7.370;2023-04-25T04:16:31;9.70;90.90
22379;DHT22;11357;49.990;7.370;2023-04-25T04:18:57;9.70;90.90
22379;DHT22;11357;49.990;7.370;2023-04-25T04:21:23;9.70;91.00
22379;DHT22;11357;49.990;7.370;2023-04-25T04:23:48;9.60;91.00
22379;DHT22;11357;49.990;7.370;2023-04-25T04:26:14;9.60;91.10
22379;DHT22;11357;49.990;7.370;2023-04-25T04:28:45;9.60;91.20
22379;DHT22;11357;49.990;7.370;2023-04-25T04:31:11;9.60;91.20
22379;DHT22;11357;49.990;7.370;2023-04-25T04:33:37;9.60;91.20
22379;DHT22;11357;49.990;7.370;2023-04-25T04:36:03;9.60;91.50
22379;DHT22;11357;49.990;7.370;2023-04-25T04:38:29;9.60;91.20
22379;DHT22;11357;49.990;7.370;2023-04-25T04:40:56;9.60;91.20
22379;DHT22;11357;49.990;7.370;2023-04-25T04:43:21;9.60;91.20
22379;DHT22;11357;49.990;7.370;2023-04-25T04:45:48;9.60;91.20
22379;DHT22;11357;49.990;7.370;2023-04-25T04:48:16;9.60;91.20
22379;DHT22;11357;49.990;7.370;2023-04-25T04:50:43;9.60;91.10
22379;DHT22;11357;49.990;7.370;2023-04-25T04:53:10;9.50;91.10
22379;DHT22;11357;49.990;7.370;2023-04-25T04:55:36;9.40;91.10
22379;DHT22;11357;49.990;7.370;2023-04-25T04:58:02;9.40;91.10
22379;DHT22;11357;49.990;7.370;2023-04-25T05:00:28;9.30;91.10
22379;DHT22;11357;49.990;7.370;2023-04-25T05:02:58;9.30;91.10
22379;DHT22;11357;49.990;7.370;2023-04-25T05:05:24;9.30;91.10
22379;DHT22;11357;49.990;7.370;2023-04-25T05:07:50;9.30;90.90
22379;DHT22;11357;49.990;7.370;2023-04-25T05:10:17;9.30;90.90
22379;DHT22;11357;49.990;7.370;2023-04-25T05:12:43;9.30;90.80
22379;DHT22;11357;49.990;7.370;2023-04-25T05:15:09;9.30;90.70
22379;DHT22;11357;49.990;7.370;2023-04-25T05:17:34;9.30;90.70
22379;DHT22;11357;49.990;7.370;2023-04-25T05:20:00;9.40;90.70
22379;DHT22;11357;49.990;7.370;2023-04-25T05:22:26;9.40;90.60
22379;DHT22;11357;49.990;7.370;2023-04-25T05:24:52;9.40;90.60
22379;DHT22;11357;49.990;7.370;2023-04-25T05:27:18;9.50;90.60
22379;DHT22;11357;49.990;7.370;2023-04-25T05:29:44;9.50;90.50
22379;DHT22;11357;49.990;7.370;2023-04-25T05:32:10;9.60;90.50
22379;DHT22;11357;49.990;7.370;2023-04-25T05:34:36;9.50;90.30
22379;DHT22;11357;49.990;7.370;2023-04-25T05:37:02;9.60;90.20
22379;DHT22;11357;49.990;7.370;2023-04-25T05:39:28;9.60;90.10
22379;DHT22;11357;49.990;7.370;2023-04-25T05:41:54;9.50;90.10
22379;DHT22;11357;49.990;7.370;2023-04-25T05:44:20;9.50;90.40
22379;DHT22;11357;49.990;7.370;2023-04-25T05:46:46;9.50;90.00
22379;DHT22;11357;49.990;7.370;2023-04-25T05:49:12;9.50;90.00
22379;DHT22;11357;49.990;7.370;2023-04-25T05:51:38;9.50;90.00
22379;DHT22;11357;49.990;7.370;2023-04-25T05:54:04;9.40;90.00
22379;DHT22;11357;49.990;7.370;2023-04-25T05:56:30;9.40;90.00
22379;DHT22;11357;49.990;7.370;2023-04-25T05:58:55;9.30;90.00
22379;DHT22;11357;49.990;7.370;2023-04-25T06:01:22;9.30;90.00
22379;DHT22;11357;49.990;7.370;2023-04-25T06:03:48;9.20;90.00
22379;DHT22;11357;49.990;7.370;2023-04-25T06:06:14;9.20;90.10
22379;DHT22;11357;49.990;7.370;2023-04-25T06:08:40;9.30;90.00
22379;DHT22;11357;49.990;7.370;2023-04-25T06:11:06;9.30;90.00
22379;DHT22;11357;49.990;7.370;2023-04-25T06:13:32;9.30;90.00
22379;DHT22;11357;49.990;7.370;2023-04-25T06:16:00;9.30;90.00
22379;DHT22;11357;49.990;7.370;2023-04-25T06:18:26;9.30;89.80
22379;DHT22;11357;49.990;7.370;2023-04-25T06:20:51;9.30;89.60
22379;DHT22;11357;49.990;7.370;2023-04-25T06:23:17;9.30;89.50
22379;DHT22;11357;49.990;7.370;2023-04-25T06:25:43;9.30;89.50
22379;DHT22;11357;49.990;7.370;2023-04-25T06:28:09;9.30;89.50
22379;DHT22;11357;49.990;7.370;2023-04-25T06:30:37;9.40;89.40
22379;DHT22;11357;49.990;7.370;2023-04-25T06:33:03;9.40;89.20
22379;DHT22;11357;49.990;7.370;2023-04-25T06:35:29;9.60;89.10
22379;DHT22;11357;49.990;7.370;2023-04-25T06:37:55;9.70;88.70
22379;DHT22;11357;49.990;7.370;2023-04-25T06:40:20;9.70;88.60
22379;DHT22;11357;49.990;7.370;2023-04-25T06:42:46;9.70;88.60
22379;DHT22;11357;49.990;7.370;2023-04-25T06:45:12;9.70;88.40
22379;DHT22;11357;49.990;7.370;2023-04-25T06:47:38;9.80;88.30
22379;DHT22;11357;49.990;7.370;2023-04-25T06:50:04;9.80;88.20
22379;DHT22;11357;49.990;7.370;2023-04-25T06:52:30;9.90;87.80
22379;DHT22;11357;49.990;7.370;2023-04-25T06:54:56;9.90;87.70
22379;DHT22;11357;49.990;7.370;2023-04-25T06:57:21;9.90;87.50
22379;DHT22;11357;49.990;7.370;2023-04-25T06:59:47;10.00;87.40
22379;DHT22;11357;49.990;7.370;2023-04-25T07:02:13;10.10;87.20
22379;DHT22;11357;49.990;7.370;2023-04-25T07:04:38;10.10;86.80
22379;DHT22;11357;49.990;7.370;2023-04-25T07:07:04;10.20;86.80
22379;DHT22;11357;49.990;7.370;2023-04-25T07:09:30;10.30;86.50
22379;DHT22;11357;49.990;7.370;2023-04-25T07:11:59;10.40;86.30
22379;DHT22;11357;49.990;7.370;2023-04-25T07:14:26;10.30;85.60
22379;DHT22;11357;49.990;7.370;2023-04-25T07:16:52;10.30;84.80
22379;DHT22;11357;49.990;7.370;2023-04-25T07:19:18;10.30;84.60
22379;DHT22;11357;49.990;7.370;2023-04-25T07:21:44;10.30;84.40
22379;DHT22;11357;49.990;7.370;2023-04-25T07:24:09;10.30;84.10
22379;DHT22;11357;49.990;7.370;2023-04-25T07:26:35;10.30;83.80
22379;DHT22;11357;49.990;7.370;2023-04-25T07:29:01;10.40;83.50
22379;DHT22;11357;49.990;7.370;2023-04-25T07:31:27;10.30;82.80
22379;DHT22;11357;49.990;7.370;2023-04-25T07:33:53;10.30;82.80
22379;DHT22;11357;49.990;7.370;2023-04-25T07:36:18;10.40;82.70
22379;DHT22;11357;49.990;7.370;2023-04-25T07:38:44;10.30;82.60
22379;DHT22;11357;49.990;7.370;2023-04-25T07:41:10;10.20;82.80
22379;DHT22;11357;49.990;7.370;2023-04-25T07:43:36;10.20;83.20
22379;DHT22;11357;49.990;7.370;2023-04-25T07:46:01;10.10;83.40
22379;DHT22;11357;49.990;7.370;2023-04-25T07:48:28;10.00;83.60
22379;DHT22;11357;49.990;7.370;2023-04-25T07:50:53;10.00;83.70
22379;DHT22;11357;49.990;7.370;2023-04-25T07:53:19;9.90;84.00
22379;DHT22;11357;49.990;7.370;2023-04-25T07:55:45;9.90;84.10
22379;DHT22;11357;49.990;7.370;2023-04-25T07:58:11;9.90;84.30
22379;DHT22;11357;49.990;7.370;2023-04-25T08:00:37;9.90;84.60
22379;DHT22;11357;49.990;7.370;2023-04-25T08:03:03;9.90;84.60
22379;DHT22;11357;49.990;7.370;2023-04-25T08:05:29;9.80;84.50
22379;DHT22;11357;49.990;7.370;2023-04-25T08:07:56;9.80;84.60
22379;DHT22;11357;49.990;7.370;2023-04-25T08:10:22;9.80;84.40
22379;DHT22;11357;49.990;7.370;2023-04-25T08:12:48;9.90;84.40
22379;DHT22;11357;49.990;7.370;2023-04-25T08:15:14;9.90;84.20
22379;DHT22;11357;49.990;7.370;2023-04-25T08:17:40;10.10;84.10
22379;DHT22;11357;49.990;7.370;2023-04-25T08:20:06;10.20;83.80
22379;DHT22;11357;49.990;7.370;2023-04-25T08:22:32;10.30;83.40
22379;DHT22;11357;49.990;7.370;2023-04-25T08:24:59;10.30;83.30
22379;DHT22;11357;49.990;7.370;2023-04-25T08:27:25;10.20;83.30
22379;DHT22;11357;49.990;7.370;2023-04-25T08:29:51;10.10;83.30
22379;DHT22;11357;49.990;7.370;2023-04-25T08:32:16;10.00;83.50
22379;DHT22;11357;49.990;7.370;2023-04-25T08:34:42;9.90;83.60
22379;DHT22;11357;49.990;7.370;2023-04-25T08:37:09;9.80;83.80
22379;DHT22;11357;49.990;7.370;2023-04-25T08:39:36;9.70;83.90
22379;DHT22;11357;49.990;7.370;2023-04-25T08:42:06;9.60;84.00
22379;DHT22;11357;49.990;7.370;2023-04-25T08:44:35;9.70;84.20
22379;DHT22;11357;49.990;7.370;2023-04-25T08:47:03;9.70;84.20
22379;DHT22;11357;49.990;7.370;2023-04-25T08:49:33;10.00;84.10
22379;DHT22;11357;49.990;7.370;2023-04-25T08:52:01;10.30;83.50
22379;DHT22;11357;49.990;7.370;2023-04-25T08:54:28;10.50;82.90
22379;DHT22;11357;49.990;7.370;2023-04-25T08:56:55;10.90;82.50
22379;DHT22;11357;49.990;7.370;2023-04-25T08:59:23;11.50;82.00
22379;DHT22;11357;49.990;7.370;2023-04-25T09:01:52;12.30;80.40
22379;DHT22;11357;49.990;7.370;2023-04-25T09:04:21;12.70;78.20
22379;DHT22;11357;49.990;7.370;2023-04-25T09:06:47;12.60;76.40
22379;DHT22;11357;49.990;7.370;2023-04-25T09:09:13;12.60;76.30
22379;DHT22;11357;49.990;7.370;2023-04-25T09:11:39;12.70;76.00
22379;DHT22;11357;49.990;7.370;2023-04-25T09:14:14;12.60;75.20
22379;DHT22;11357;49.990;7.370;2023-04-25T09:19:31;12.10;75.60
22379;DHT22;11357;49.990;7.370;2023-04-25T09:21:58;11.90;76.20
22379;DHT22;11357;49.990;7.370;2023-04-25T09:27:13;12.30;76.00
22379;DHT22;11357;49.990;7.370;2023-04-25T09:29:43;12.50;75.30
22379;DHT22;11357;49.990;7.370;2023-04-25T09:32:24;12.60;74.80
22379;DHT22;11357;49.990;7.370;2023-04-25T09:37:21;12.30;74.20
22379;DHT22;11357;49.990;7.370;2023-04-25T09:39:49;12.10;74.30
22379;DHT22;11357;49.990;7.370;2023-04-25T09:42:16;12.00;74.70
22379;DHT22;11357;49.990;7.370;2023-04-25T09:44:46;11.80;75.10
22379;DHT22;11357;49.990;7.370;2023-04-25T09:47:13;11.50;75.30
22379;DHT22;11357;49.990;7.370;2023-04-25T09:49:42;11.40;75.40
22379;DHT22;11357;49.990;7.370;2023-04-25T09:52:08;11.30;75.90
22379;DHT22;11357;49.990;7.370;2023-04-25T09:54:35;11.30;76.30
22379;DHT22;11357;49.990;7.370;2023-04-25T09:57:14;11.50;76.50
22379;DHT22;11357;49.990;7.370;2023-04-25T09:59:52;11.60;76.40
22379;DHT22;11357;49.990;7.370;2023-04-25T10:02:20;11.70;76.10
22379;DHT22;11357;49.990;7.370;2023-04-25T10:04:52;11.80;75.80
22379;DHT22;11357;49.990;7.370;2023-04-25T10:07:24;11.80;75.70
22379;DHT22;11357;49.990;7.370;2023-04-25T10:09:58;11.90;75.70
22379;DHT22;11357;49.990;7.370;2023-04-25T10:12:31;12.00;75.20
22379;DHT22;11357;49.990;7.370;2023-04-25T10:14:58;12.10;74.60
22379;DHT22;11357;49.990;7.370;2023-04-25T10:17:24;12.30;74.90
22379;DHT22;11357;49.990;7.370;2023-04-25T10:19:53;12.70;73.80
22379;DHT22;11357;49.990;7.370;2023-04-25T10:22:38;12.90;72.70
22379;DHT22;11357;49.990;7.370;2023-04-25T10:25:05;13.00;71.90
22379;DHT22;11357;49.990;7.370;2023-04-25T10:27:32;12.90;70.80
22379;DHT22;11357;49.990;7.370;2023-04-25T10:30:16;12.70;71.00
22379;DHT22;11357;49.990;7.370;2023-04-25T10:32:42;12.60;71.00
22379;DHT22;11357;49.990;7.370;2023-04-25T10:40:31;12.70;71.20
22379;DHT22;11357;49.990;7.370;2023-04-25T10:43:36;12.70;70.90
22379;DHT22;11357;49.990;7.370;2023-04-25T10:46:27;12.70;71.10
22379;DHT22;11357;49.990;7.370;2023-04-25T10:49:00;12.70;71.20
22379;DHT22;11357;49.990;7.370;2023-04-25T10:53:57;12.50;70.80
22379;DHT22;11357;49.990;7.370;2023-04-25T10:56:28;12.30;71.10
22379;DHT22;11357;49.990;7.370;2023-04-25T10:59:08;12.10;71.50
22379;DHT22;11357;49.990;7.370;2023-04-25T11:01:55;12.00;71.90
22379;DHT22;11357;49.990;7.370;2023-04-25T11:04:31;12.00;72.40
22379;DHT22;11357;49.990;7.370;2023-04-25T11:09:49;12.30;72.20
22379;DHT22;11357;49.990;7.370;2023-04-25T11:12:15;12.50;71.50
22379;DHT22;11357;49.990;7.370;2023-04-25T11:14:41;12.70;71.00
22379;DHT22;11357;49.990;7.370;2023-04-25T11:17:07;12.80;70.30
22379;DHT22;11357;49.990;7.370;2023-04-25T11:19:34;12.80;68.10
22379;DHT22;11357;49.990;7.370;2023-04-25T11:22:01;12.90;67.90
22379;DHT22;11357;49.990;7.370;2023-04-25T11:24:32;13.00;67.80
22379;DHT22;11357;49.990;7.370;2023-04-25T11:26:58;13.10;67.20
22379;DHT22;11357;49.990;7.370;2023-04-25T11:29:29;13.30;67.00
22379;DHT22;11357;49.990;7.370;2023-04-25T11:31:56;13.30;67.00
22379;DHT22;11357;49.990;7.370;2023-04-25T11:34:26;13.40;66.90
22379;DHT22;11357;49.990;7.370;2023-04-25T11:36:53;13.50;65.90
22379;DHT22;11357;49.990;7.370;2023-04-25T11:39:20;13.40;65.70
22379;DHT22;11357;49.990;7.370;2023-04-25T11:41:46;13.30;64.90
22379;DHT22;11357;49.990;7.370;2023-04-25T11:44:15;13.20;65.10
22379;DHT22;11357;49.990;7.370;2023-04-25T11:46:42;13.20;65.30
22379;DHT22;11357;49.990;7.370;2023-04-25T11:49:08;13.40;65.10
22379;DHT22;11357;49.990;7.370;2023-04-25T11:51:45;13.60;64.40
22379;DHT22;11357;49.990;7.370;2023-04-25T11:54:12;13.90;63.90
22379;DHT22;11357;49.990;7.370;2023-04-25T11:56:44;14.10;63.10
22379;DHT22;11357;49.990;7.370;2023-04-25T11:59:29;14.40;62.20
22379;DHT22;11357;49.990;7.370;2023-04-25T12:01:55;14.60;61.50
22379;DHT22;11357;49.990;7.370;2023-04-25T12:04:21;14.60;61.00
22379;DHT22;11357;49.990;7.370;2023-04-25T12:06:50;14.60;61.00
22379;DHT22;11357;49.990;7.370;2023-04-25T12:09:18;14.50;60.00
22379;DHT22;11357;49.990;7.370;2023-04-25T12:11:49;14.40;59.90
22379;DHT22;11357;49.990;7.370;2023-04-25T12:14:29;14.20;59.80
22379;DHT22;11357;49.990;7.370;2023-04-25T12:16:57;14.10;60.80
22379;DHT22;11357;49.990;7.370;2023-04-25T12:19:24;14.10;60.40
22379;DHT22;11357;49.990;7.370;2023-04-25T12:21:50;14.70;59.30
22379;DHT22;11357;49.990;7.370;2023-04-25T12:26:58;16.80;56.50
22379;DHT22;11357;49.990;7.370;2023-04-25T12:29:26;17.40;56.20
22379;DHT22;11357;49.990;7.370;2023-04-25T12:31:53;17.90;55.10
22379;DHT22;11357;49.990;7.370;2023-04-25T12:34:20;17.70;54.40
22379;DHT22;11357;49.990;7.370;2023-04-25T12:36:48;17.50;54.00
22379;DHT22;11357;49.990;7.370;2023-04-25T12:39:24;17.20;53.90
22379;DHT22;11357;49.990;7.370;2023-04-25T12:41:53;16.80;54.20
22379;DHT22;11357;49.990;7.370;2023-04-25T12:44:20;16.80;54.70
22379;DHT22;11357;49.990;7.370;2023-04-25T12:46:47;17.20;54.50
22379;DHT22;11357;49.990;7.370;2023-04-25T12:49:12;17.10;52.90
22379;DHT22;11357;49.990;7.370;2023-04-25T12:51:38;16.60;53.40
22379;DHT22;11357;49.990;7.370;2023-04-25T12:54:05;16.20;54.50
22379;DHT22;11357;49.990;7.370;2023-04-25T12:56:34;16.00;55.10
22379;DHT22;11357;49.990;7.370;2023-04-25T12:59:02;15.90;55.00
22379;DHT22;11357;49.990;7.370;2023-04-25T13:01:30;15.80;54.90
22379;DHT22;11357;49.990;7.370;2023-04-25T13:03:56;15.90;54.70
22379;DHT22;11357;49.990;7.370;2023-04-25T13:06:22;16.00;54.50
22379;DHT22;11357;49.990;7.370;2023-04-25T13:08:48;15.80;54.40
22379;DHT22;11357;49.990;7.370;2023-04-25T13:11:14;15.80;54.60
22379;DHT22;11357;49.990;7.370;2023-04-25T13:13:43;15.90;54.90
22379;DHT22;11357;49.990;7.370;2023-04-25T13:16:09;16.20;54.40
22379;DHT22;11357;49.990;7.370;2023-04-25T13:18:41;16.10;54.00
22379;DHT22;11357;49.990;7.370;2023-04-25T13:21:11;16.00;54.30
22379;DHT22;11357;49.990;7.370;2023-04-25T13:23:37;15.90;54.30
22379;DHT22;11357;49.990;7.370;2023-04-25T13:26:03;15.80;54.00
22379;DHT22;11357;49.990;7.370;2023-04-25T13:28:29;15.80;54.20
22379;DHT22;11357;49.990;7.370;2023-04-25T13:30:54;15.80;53.80
22379;DHT22;11357;49.990;7.370;2023-04-25T13:33:20;15.70;54.00
22379;DHT22;11357;49.990;7.370;2023-04-25T13:35:48;15.60;55.00
22379;DHT22;11357;49.990;7.370;2023-04-25T13:38:22;15.70;54.50
22379;DHT22;11357;49.990;7.370;2023-04-25T13:40:48;15.60;54.00
22379;DHT22;11357;49.990;7.370;2023-04-25T13:43:14;15.40;53.10
22379;DHT22;11357;49.990;7.370;2023-04-25T13:45:40;15.30;53.80
22379;DHT22;11357;49.990;7.370;2023-04-25T13:48:06;15.20;54.20
22379;DHT22;11357;49.990;7.370;2023-04-25T13:50:32;15.10;54.10
22379;DHT22;11357;49.990;7.370;2023-04-25T13:52:58;14.90;53.90
22379;DHT22;11357;49.990;7.370;2023-04-25T13:55:23;14.70;54.40
22379;DHT22;11357;49.990;7.370;2023-04-25T13:57:49;14.50;55.00
22379;DHT22;11357;49.990;7.370;2023-04-25T14:00:15;14.30;54.90
22379;DHT22;11357;49.990;7.370;2023-04-25T14:02:41;14.10;55.50
22379;DHT22;11357;49.990;7.370;2023-04-25T14:05:07;13.90;56.20
22379;DHT22;11357;49.990;7.370;2023-04-25T14:07:36;13.90;56.80
22379;DHT22;11357;49.990;7.370;2023-04-25T14:10:03;13.90;56.00
22379;DHT22;11357;49.990;7.370;2023-04-25T14:12:32;13.80;56.10
22379;DHT22;11357;49.990;7.370;2023-04-25T14:14:57;13.90;56.40
22379;DHT22;11357;49.990;7.370;2023-04-25T14:17:23;14.20;56.10
22379;DHT22;11357;49.990;7.370;2023-04-25T14:19:50;14.50;55.50
22379;DHT22;11357;49.990;7.370;2023-04-25T14:22:15;14.70;54.90
22379;DHT22;11357;49.990;7.370;2023-04-25T14:24:41;15.00;54.50
22379;DHT22;11357;49.990;7.370;2023-04-25T14:27:07;15.20;53.80
22379;DHT22;11357;49.990;7.370;2023-04-25T14:29:34;15.40;53.10
22379;DHT22;11357;49.990;7.370;2023-04-25T14:32:00;15.60;52.40
22379;DHT22;11357;49.990;7.370;2023-04-25T14:34:25;15.70;52.60
22379;DHT22;11357;49.990;7.370;2023-04-25T14:36:51;15.80;51.50
22379;DHT22;11357;49.990;7.370;2023-04-25T14:39:17;15.80;51.30
22379;DHT22;11357;49.990;7.370;2023-04-25T14:41:43;15.60;51.10
22379;DHT22;11357;49.990;7.370;2023-04-25T14:44:09;15.40;51.40
22379;DHT22;11357;49.990;7.370;2023-04-25T14:46:36;15.30;51.50
22379;DHT22;11357;49.990;7.370;2023-04-25T14:49:02;15.00;51.50
22379;DHT22;11357;49.990;7.370;2023-04-25T14:51:27;14.70;51.70
22379;DHT22;11357;49.990;7.370;2023-04-25T14:53:53;14.30;53.00
22379;DHT22;11357;49.990;7.370;2023-04-25T14:56:18;14.00;54.70
22379;DHT22;11357;49.990;7.370;2023-04-25T14:58:44;13.80;55.70
22379;DHT22;11357;49.990;7.370;2023-04-25T15:01:11;13.50;56.50
22379;DHT22;11357;49.990;7.370;2023-04-25T15:03:39;13.30;57.20
22379;DHT22;11357;49.990;7.370;2023-04-25T15:06:05;13.10;57.90
22379;DHT22;11357;49.990;7.370;2023-04-25T15:08:31;13.00;58.30
22379;DHT22;11357;49.990;7.370;2023-04-25T15:10:58;12.90;58.70
22379;DHT22;11357;49.990;7.370;2023-04-25T15:13:24;12.80;59.30
22379;DHT22;11357;49.990;7.370;2023-04-25T15:15:50;12.60;59.30
22379;DHT22;11357;49.990;7.370;2023-04-25T15:18:19;12.50;59.70
22379;DHT22;11357;49.990;7.370;2023-04-25T15:20:47;12.40;59.80
22379;DHT22;11357;49.990;7.370;2023-04-25T15:23:12;12.30;60.00
22379;DHT22;11357;49.990;7.370;2023-04-25T15:25:38;12.10;60.30
22379;DHT22;11357;49.990;7.370;2023-04-25T15:28:04;12.10;60.60
22379;DHT22;11357;49.990;7.370;2023-04-25T15:30:30;12.10;61.00
22379;DHT22;11357;49.990;7.370;2023-04-25T15:32:55;12.10;60.90
22379;DHT22;11357;49.990;7.370;2023-04-25T15:35:21;12.10;61.20
22379;DHT22;11357;49.990;7.370;2023-04-25T15:37:47;12.20;61.20
22379;DHT22;11357;49.990;7.370;2023-04-25T15:40:16;12.40;61.30
22379;DHT22;11357;49.990;7.370;2023-04-25T15:45:10;12.70;60.90
22379;DHT22;11357;49.990;7.370;2023-04-25T15:47:37;12.70;60.10
22379;DHT22;11357;49.990;7.370;2023-04-25T15:50:04;12.90;59.80
22379;DHT22;11357;49.990;7.370;2023-04-25T15:52:31;13.00;59.40
22379;DHT22;11357;49.990;7.370;2023-04-25T15:54:57;12.90;58.70
22379;DHT22;11357;49.990;7.370;2023-04-25T15:57:22;12.90;58.80